createdAt,value
2019-04-05T18:12:08.797Z,100062.31
2019-04-05T18:14:41.229Z,100071.67
2019-04-05T18:17:12.818Z,100070.30
2019-04-05T18:19:44.454Z,100075.19
2019-04-05T18:22:16.007Z,100080.97
2019-04-05T18:24:47.531Z,100083.63
2019-04-05T18:27:19.176Z,100084.53
2019-04-05T18:29:50.918Z,100090.31
2019-04-05T18:32:22.588Z,100086.72
2019-04-05T18:34:54.360Z,100081.34
2019-04-05T18:37:26.092Z,100088.94
2019-04-05T18:39:57.722Z,100090.69
2019-04-05T18:42:29.416Z,100090.23
2019-04-05T18:45:00.903Z,100089.34
2019-04-05T18:47:34.718Z,100090.18
2019-04-05T18:50:07.555Z,100091.05
2019-04-05T18:52:39.414Z,100092.81
2019-04-05T18:55:10.942Z,100089.20
2019-04-05T18:57:42.608Z,100092.30
2019-04-05T19:00:14.155Z,100092.69
2019-04-05T19:02:45.861Z,100095.34
2019-04-05T19:05:17.644Z,100101.11
2019-04-05T19:07:50.164Z,100099.73
2019-04-05T19:10:21.620Z,100108.18
2019-04-05T19:12:53.403Z,100100.12
2019-04-05T19:15:25.133Z,100100.10
2019-04-05T19:17:56.807Z,100108.13
2019-04-05T19:20:28.406Z,100102.74
2019-04-05T19:22:59.881Z,100109.43
2019-04-05T19:25:31.528Z,100112.11
2019-04-05T19:28:03.018Z,100115.22
2019-04-05T19:48:30.626Z,100110.27
2019-04-05T19:51:48.541Z,100106.66
2019-04-05T19:54:27.664Z,100109.34
2019-04-05T19:56:59.489Z,100117.30
2019-04-05T19:59:31.587Z,100111.50
2019-04-05T20:02:03.500Z,100115.92
2019-04-05T20:04:35.433Z,100124.80
2019-04-05T20:07:07.412Z,100122.54
2019-04-05T20:09:39.525Z,100119.86
2019-04-05T20:12:12.895Z,100121.61
2019-04-05T20:14:44.901Z,100122.91
2019-04-05T20:17:16.854Z,100121.55
2019-04-05T20:19:48.658Z,100117.98
2019-04-05T20:22:20.347Z,100118.83
2019-04-05T20:24:52.163Z,100124.63
2019-04-05T20:27:24.064Z,100132.16
2019-04-05T20:29:55.830Z,100121.91
2019-04-05T20:32:27.731Z,100131.23
2019-04-05T20:35:00.930Z,100131.67
2019-04-05T20:37:32.553Z,100126.77
2019-04-05T20:40:08.678Z,100130.30
2019-04-05T20:42:40.269Z,100124.03
2019-04-05T20:45:12.909Z,100120.91
2019-04-05T20:47:44.451Z,100125.77
2019-04-05T20:50:16.074Z,100124.39
2019-04-05T20:52:47.793Z,100127.47
2019-04-05T20:55:19.508Z,100130.58
2019-04-05T20:57:50.936Z,100120.30
2019-04-05T21:00:22.415Z,100123.34
2019-04-05T21:02:53.933Z,100126.45
2019-04-05T21:05:25.880Z,100131.31
2019-04-05T21:07:57.383Z,100126.34
2019-04-05T21:10:29.158Z,100130.78
2019-04-05T21:13:00.860Z,100134.79
2019-04-05T21:15:32.842Z,100139.65
2019-04-05T21:18:04.376Z,100138.27
2019-04-05T21:20:36.066Z,100138.66
2019-04-05T21:23:07.823Z,100143.08
2019-04-05T21:25:39.327Z,100146.13
2019-04-05T21:28:10.929Z,100143.82
2019-04-05T21:30:42.521Z,100156.67
2019-04-05T21:33:14.107Z,100153.95
2019-04-05T21:35:46.275Z,100148.97
2019-04-05T21:38:18.404Z,100149.35
2019-04-05T21:40:49.958Z,100152.36
2019-04-05T21:43:21.556Z,100159.37
2019-04-05T21:45:53.324Z,100157.48
2019-04-05T21:48:24.966Z,100162.33
2019-04-05T21:50:56.592Z,100160.88
2019-04-05T21:53:28.124Z,100166.59
2019-04-05T21:55:59.708Z,100164.27
2019-04-05T21:58:31.519Z,100173.50
2019-04-05T22:01:07.337Z,100168.09
2019-04-05T22:03:40.870Z,100169.76
2019-04-05T22:06:12.594Z,100169.23
2019-04-05T22:08:44.191Z,100167.80
2019-04-05T22:11:15.673Z,100163.25
2019-04-05T22:13:47.388Z,100162.23
2019-04-05T22:16:19.074Z,100171.50
2019-04-05T22:18:50.639Z,100171.39
2019-04-05T22:21:22.295Z,100170.42
2019-04-05T22:23:53.897Z,100168.09
2019-04-05T22:26:25.434Z,100169.33
2019-04-05T22:28:56.991Z,100173.66
2019-04-05T22:31:29.547Z,100166.02
2019-04-05T22:34:01.250Z,100173.50
2019-04-05T22:36:32.726Z,100173.88
2019-04-05T22:39:05.522Z,100173.80
2019-04-05T22:41:37.976Z,100167.91
2019-04-05T22:44:09.796Z,100173.61
2019-04-05T22:46:41.449Z,100173.52
2019-04-05T22:49:14.259Z,100173.45
2019-04-05T22:51:46.070Z,100167.54
2019-04-05T22:54:17.583Z,100177.68
2019-04-05T22:56:49.252Z,100173.16
2019-04-05T22:59:20.907Z,100174.41
2019-04-05T23:01:52.568Z,100177.00
2019-04-05T23:04:24.181Z,100172.48
2019-04-05T23:06:55.906Z,100173.28
2019-04-05T23:09:27.480Z,100170.48
2019-04-05T23:11:59.167Z,100170.48
2019-04-05T23:14:30.689Z,100170.80
2019-04-05T23:17:02.568Z,100175.20
2019-04-05T23:19:35.268Z,100173.34
2019-04-05T23:22:06.843Z,100174.55
2019-04-05T23:24:38.513Z,100177.53
2019-04-05T23:27:10.220Z,100175.59
2019-04-05T23:29:41.833Z,100174.69
2019-04-05T23:32:13.632Z,100180.38
2019-04-05T23:34:45.238Z,100177.62
2019-04-05T23:37:17.027Z,100180.19
2019-04-05T23:39:48.714Z,100185.87
2019-04-05T23:42:20.305Z,100184.02
2019-04-05T23:44:51.819Z,100185.30
2019-04-05T23:47:24.694Z,100174.10
2019-04-05T23:49:56.790Z,100178.91
2019-04-05T23:52:28.369Z,100169.96
2019-04-05T23:55:33.415Z,100173.48
2019-04-05T23:58:02.161Z,100183.66
